Time;durP1;ratioP1;P1;durP2;ratioP2;P2;SDS_P1;SDS_P2;PMS_P1;PMS_P2;Temp;Humidity;BMP_temperature;BMP_pressure;BME280_temperature;BME280_humidity;BME280_pressure;Samples;Min_cycle;Max_cycle;Signal;HPM_P1;HPM_P2
2023/12/22 00:00:26;;;;;;;79.95;76.18;;;;;;;10.25;69.73;100255.72;5030729;28;20050;-68
2023/12/22 00:02:52;;;;;;;77.03;73.45;;;;;;;10.26;70.02;100261.97;5029845;28;20036;-68
2023/12/22 00:05:17;;;;;;;82.63;77.18;;;;;;;10.26;69.93;100256.56;5026289;28;20114;-69
2023/12/22 00:07:43;;;;;;;74.72;71.35;;;;;;;10.26;69.44;100260.06;5012436;28;20093;-68
2023/12/22 00:10:09;;;;;;;71.07;67.50;;;;;;;10.25;69.18;100258.44;5011669;28;20080;-68
2023/12/22 00:12:34;;;;;;;75.70;72.25;;;;;;;10.24;69.28;100270.31;5011044;28;20040;-68
2023/12/22 00:15:00;;;;;;;78.57;74.80;;;;;;;10.23;69.42;100262.44;5024941;28;20401;-68
2023/12/22 00:17:25;;;;;;;74.60;71.07;;;;;;;10.22;69.34;100272.44;5016927;28;20088;-68
2023/12/22 00:19:51;;;;;;;75.68;72.28;;;;;;;10.21;69.25;100270.81;5025699;28;20038;-68
2023/12/22 00:22:16;;;;;;;80.68;76.97;;;;;;;10.19;69.42;100271.06;5014385;28;20500;-69
2023/12/22 00:24:41;;;;;;;80.90;76.78;;;;;;;10.18;69.49;100264.03;5024073;28;20037;-68
2023/12/22 00:27:07;;;;;;;81.45;77.32;;;;;;;10.21;69.64;100272.72;5018377;28;20061;-68
2023/12/22 00:29:35;;;;;;;77.47;73.65;;;;;;;10.20;69.53;100271.88;5012046;28;20125;-69
2023/12/22 00:32:02;;;;;;;81.25;77.55;;;;;;;10.16;69.54;100268.88;5011561;28;20104;-68
2023/12/22 00:34:27;;;;;;;72.72;69.32;;;;;;;10.14;69.68;100276.38;5016618;28;20044;-68
2023/12/22 00:36:53;;;;;;;78.57;75.03;;;;;;;10.14;69.37;100280.97;5028252;28;20136;-68
2023/12/22 00:39:18;;;;;;;76.97;73.13;;;;;;;10.14;69.34;100284.47;5016706;28;20046;-69
2023/12/22 00:41:43;;;;;;;75.00;71.40;;;;;;;10.13;69.51;100300.91;5029875;28;20064;-70
2023/12/22 00:44:09;;;;;;;77.25;72.90;;;;;;;10.13;69.67;100309.00;5031403;28;20375;-68
2023/12/22 00:46:34;;;;;;;75.82;71.97;;;;;;;10.13;69.29;100304.47;5015214;28;20072;-68
2023/12/22 00:48:59;;;;;;;75.22;71.63;;;;;;;10.15;69.12;100298.78;5009862;28;20030;-68
2023/12/22 00:51:25;;;;;;;74.38;70.22;;;;;;;10.14;69.21;100300.69;5011932;28;20026;-69
2023/12/22 00:53:50;;;;;;;72.90;69.15;;;;;;;10.10;68.39;100286.03;5027723;28;20029;-68
2023/12/22 00:56:16;;;;;;;73.30;69.88;;;;;;;10.04;69.21;100346.41;5024603;28;20042;-68
2023/12/22 00:58:41;;;;;;;75.55;71.90;;;;;;;9.99;68.88;100313.97;5011471;28;20478;-68
2023/12/22 01:01:06;;;;;;;77.18;73.07;;;;;;;9.95;69.43;100292.09;5011365;28;20034;-69
2023/12/22 01:03:32;;;;;;;74.72;71.00;;;;;;;9.99;69.06;100294.28;5029841;28;20037;-67
2023/12/22 01:05:57;;;;;;;77.43;73.18;;;;;;;9.97;69.62;100298.03;5030407;28;20037;-68
2023/12/22 01:08:22;;;;;;;71.22;68.07;;;;;;;9.99;69.55;100313.16;5030948;28;20045;-68
2023/12/22 01:10:48;;;;;;;73.82;69.68;;;;;;;10.02;69.40;100304.56;5027929;28;20080;-69
2023/12/22 01:13:14;;;;;;;74.05;70.65;;;;;;;10.04;69.34;100318.63;5030051;28;20125;-67
2023/12/22 01:15:39;;;;;;;71.82;68.53;;;;;;;10.05;69.78;100306.75;5026307;28;20461;-67
2023/12/22 01:18:05;;;;;;;74.38;70.35;;;;;;;10.06;69.36;100321.91;5012473;28;20490;-68
2023/12/22 01:20:30;;;;;;;75.25;71.85;;;;;;;10.07;69.57;100318.13;5011726;28;20121;-67
2023/12/22 01:22:55;;;;;;;76.75;73.05;;;;;;;10.05;69.54;100325.66;5020020;28;20043;-68
2023/12/22 01:25:21;;;;;;;79.10;75.25;;;;;;;10.06;69.23;100340.78;5019642;28;20033;-68
2023/12/22 01:27:48;;;;;;;75.85;72.40;;;;;;;10.05;69.41;100329.16;5046158;28;20034;-69
2023/12/22 01:30:13;;;;;;;76.43;72.82;;;;;;;10.04;68.86;100340.22;5021137;28;20042;-69
2023/12/22 01:32:38;;;;;;;75.80;72.30;;;;;;;10.04;68.62;100345.63;5014908;28;20101;-67
2023/12/22 01:35:09;;;;;;;77.43;73.95;;;;;;;10.04;68.87;100351.00;5014964;28;20030;-68
2023/12/22 01:37:35;;;;;;;76.45;72.40;;;;;;;10.04;69.11;100348.31;5032986;28;20417;-68
2023/12/22 01:40:01;;;;;;;75.28;71.97;;;;;;;10.03;68.83;100341.25;5030284;28;20101;-68
2023/12/22 01:42:26;;;;;;;72.95;69.50;;;;;;;10.04;68.66;100351.00;5026517;28;20544;-69
2023/12/22 01:44:52;;;;;;;79.07;75.28;;;;;;;10.04;69.01;100343.72;5033083;28;20172;-70
2023/12/22 01:47:17;;;;;;;74.38;70.88;;;;;;;10.03;69.15;100342.09;5033544;28;20104;-67
2023/12/22 01:49:42;;;;;;;73.57;69.97;;;;;;;10.03;68.53;100354.75;5029010;28;20123;-69
2023/12/22 01:52:08;;;;;;;78.28;73.88;;;;;;;10.02;68.91;100366.63;5014384;28;20493;-68
2023/12/22 01:54:34;;;;;;;73.57;70.10;;;;;;;10.00;68.55;100385.75;5014601;28;20065;-68
2023/12/22 01:57:00;;;;;;;77.35;73.50;;;;;;;9.99;68.82;100372.53;5021638;28;20033;-68
2023/12/22 01:59:26;;;;;;;72.63;69.22;;;;;;;9.99;68.72;100356.34;5022640;28;20066;-68
2023/12/22 02:01:53;;;;;;;74.05;70.57;;;;;;;9.98;68.80;100350.13;5025946;28;20517;-68
2023/12/22 02:04:19;;;;;;;76.25;72.20;;;;;;;9.96;68.87;100365.75;5015144;28;20140;-67
2023/12/22 02:06:44;;;;;;;79.05;75.35;;;;;;;9.93;68.46;100361.66;5020046;28;20505;-67
2023/12/22 02:09:10;;;;;;;76.03;72.45;;;;;;;9.91;68.75;100363.78;5024837;28;20035;-68
2023/12/22 02:11:38;;;;;;;73.20;69.90;;;;;;;9.90;68.29;100342.44;5020764;28;20118;-68
2023/12/22 02:14:03;;;;;;;73.03;69.47;;;;;;;9.89;68.37;100346.22;5014284;28;20030;-68
2023/12/22 02:16:51;;;;;;;74.10;70.82;;;;;;;9.89;68.64;100349.72;5023778;28;20345;-67
2023/12/22 02:19:40;;;;;;;71.07;67.78;;;;;;;9.89;68.77;100347.03;5031011;28;20047;-68
2023/12/22 02:22:07;;;;;;;73.28;68.90;;;;;;;9.90;68.41;100343.28;5033613;28;20120;-67
2023/12/22 02:24:33;;;;;;;75.28;71.35;;;;;;;9.89;68.50;100367.78;5031260;28;20541;-67
2023/12/22 02:27:03;;;;;;;72.10;68.40;;;;;;;9.86;68.70;100403.38;5032298;28;20069;-67
2023/12/22 02:29:32;;;;;;;73.53;69.70;;;;;;;9.79;69.21;100395.44;5023897;28;20125;-68
2023/12/22 02:32:02;;;;;;;73.05;69.75;;;;;;;9.77;69.48;100367.06;5013982;28;20037;-67
2023/12/22 02:34:29;;;;;;;70.40;66.25;;;;;;;9.78;69.25;100379.47;5024282;28;20568;-67
2023/12/22 02:36:54;;;;;;;73.78;69.93;;;;;;;9.80;69.46;100374.66;5018171;28;20049;-68
2023/12/22 02:39:20;;;;;;;76.03;72.05;;;;;;;9.82;69.39;100376.03;5017946;28;20108;-67
2023/12/22 02:41:46;;;;;;;70.38;66.28;;;;;;;9.86;69.73;100363.72;5020845;28;20041;-66
2023/12/22 02:44:12;;;;;;;75.70;71.63;;;;;;;9.89;69.64;100365.91;5021863;28;20026;-67
2023/12/22 02:46:37;;;;;;;73.97;70.18;;;;;;;9.92;69.44;100373.50;5019773;28;20038;-68
2023/12/22 02:49:02;;;;;;;75.05;71.65;;;;;;;9.95;69.67;100373.03;5032181;28;20048;-68
2023/12/22 02:51:28;;;;;;;73.28;69.95;;;;;;;9.99;69.42;100367.94;5016433;28;20073;-67
2023/12/22 02:53:53;;;;;;;76.45;72.38;;;;;;;9.99;69.40;100356.34;5015399;28;20037;-68
2023/12/22 02:56:19;;;;;;;77.05;73.47;;;;;;;10.00;69.28;100361.47;5019865;28;20062;-68
2023/12/22 02:58:45;;;;;;;71.28;67.68;;;;;;;10.01;69.25;100348.81;5032951;28;20033;-67
2023/12/22 03:01:10;;;;;;;72.60;69.38;;;;;;;9.97;68.96;100346.59;5014386;28;20030;-68
2023/12/22 03:03:35;;;;;;;74.35;70.60;;;;;;;9.94;69.10;100347.09;5012724;28;20045;-68
2023/12/22 03:06:01;;;;;;;74.15;70.57;;;;;;;9.95;69.10;100348.75;5013603;28;20037;-67
2023/12/22 03:08:26;;;;;;;81.55;77.03;;;;;;;9.94;69.45;100357.06;5015351;28;20473;-67
2023/12/22 03:10:52;;;;;;;75.10;71.63;;;;;;;9.91;69.17;100355.69;5030103;28;20413;-68
2023/12/22 03:13:17;;;;;;;76.38;72.28;;;;;;;9.90;69.15;100350.53;5022529;28;20172;-68
2023/12/22 03:15:42;;;;;;;76.00;71.10;;;;;;;9.89;69.17;100333.53;5012145;28;20069;-67
2023/12/22 03:18:08;;;;;;;71.72;68.43;;;;;;;9.86;69.29;100330.53;5029410;28;20040;-68
2023/12/22 03:20:33;;;;;;;72.72;69.43;;;;;;;9.84;69.40;100336.16;5020447;28;20045;-68
2023/12/22 03:22:58;;;;;;;72.95;69.55;;;;;;;9.81;69.32;100331.25;5013239;28;20112;-67
2023/12/22 03:25:24;;;;;;;76.05;72.22;;;;;;;9.81;68.96;100336.66;5012429;28;20033;-68
2023/12/22 03:27:50;;;;;;;75.28;71.82;;;;;;;9.81;69.21;100316.97;5014522;28;20518;-68
2023/12/22 03:30:15;;;;;;;72.18;68.88;;;;;;;9.79;69.52;100322.59;5021359;28;20390;-69
2023/12/22 03:32:41;;;;;;;74.72;71.07;;;;;;;9.79;69.44;100333.38;5012710;28;20474;-67
2023/12/22 03:35:06;;;;;;;75.85;72.22;;;;;;;9.76;69.47;100325.78;5015526;28;20025;-69
2023/12/22 03:37:31;;;;;;;73.82;70.15;;;;;;;9.77;69.69;100335.50;5023682;28;20037;-67
2023/12/22 03:39:57;;;;;;;77.40;73.50;;;;;;;9.76;69.65;100333.88;5015241;28;20384;-67
2023/12/22 03:42:22;;;;;;;77.70;73.80;;;;;;;9.76;69.66;100339.28;5015354;28;20115;-68
2023/12/22 03:44:47;;;;;;;75.63;72.20;;;;;;;9.75;69.33;100340.31;5012610;28;20455;-67
2023/12/22 03:47:15;;;;;;;75.22;71.93;;;;;;;9.72;69.67;100335.44;5024539;28;20057;-67
2023/12/22 03:49:40;;;;;;;72.47;69.05;;;;;;;9.74;69.88;100336.81;5012311;28;20030;-67
2023/12/22 03:52:06;;;;;;;72.90;69.60;;;;;;;9.77;69.44;100342.78;5028053;28;20030;-68
2023/12/22 03:54:31;;;;;;;77.78;73.63;;;;;;;9.76;69.56;100344.69;5021406;28;20425;-67
2023/12/22 03:56:56;;;;;;;72.63;69.03;;;;;;;9.76;69.47;100360.84;5029802;28;20037;-69
2023/12/22 03:59:22;;;;;;;78.13;73.97;;;;;;;9.75;69.50;100340.31;5030890;28;20065;-67
2023/12/22 04:01:52;;;;;;;72.70;69.40;;;;;;;9.76;69.96;100336.59;5035407;28;20059;-68
2023/12/22 04:04:18;;;;;;;77.40;73.30;;;;;;;9.75;69.67;100348.41;5017341;28;20061;-68
2023/12/22 04:06:43;;;;;;;77.03;73.32;;;;;;;9.76;69.66;100352.78;5030603;28;20147;-68
2023/12/22 04:09:09;;;;;;;76.43;72.70;;;;;;;9.77;69.67;100342.78;5030932;28;20038;-69
2023/12/22 04:11:36;;;;;;;72.15;68.85;;;;;;;9.75;69.66;100361.91;5032888;28;20044;-68
2023/12/22 04:14:01;;;;;;;72.22;68.63;;;;;;;9.74;69.51;100353.00;5016459;28;20084;-68
2023/12/22 04:16:27;;;;;;;74.22;70.38;;;;;;;9.74;69.47;100357.59;5017373;28;20049;-68
2023/12/22 04:18:52;;;;;;;76.85;73.25;;;;;;;9.73;69.39;100354.06;5017659;28;20034;-68
2023/12/22 04:21:17;;;;;;;69.97;66.82;;;;;;;9.73;69.40;100364.06;5030290;28;20052;-67
2023/12/22 04:23:43;;;;;;;74.47;71.13;;;;;;;9.73;69.65;100359.47;5016631;28;20065;-68
2023/12/22 04:26:08;;;;;;;72.35;69.10;;;;;;;9.75;69.17;100372.69;5012235;28;20073;-68
2023/12/22 04:28:34;;;;;;;78.03;74.43;;;;;;;9.75;69.24;100359.22;5011857;28;20030;-68
2023/12/22 04:30:59;;;;;;;76.32;72.28;;;;;;;9.75;69.35;100356.50;5016993;28;20127;-67
2023/12/22 04:33:24;;;;;;;76.22;72.72;;;;;;;9.73;69.49;100364.88;5019335;28;20376;-68
2023/12/22 04:35:50;;;;;;;76.57;73.13;;;;;;;9.73;69.54;100372.97;5011919;28;20042;-68
2023/12/22 04:38:15;;;;;;;74.38;71.07;;;;;;;9.73;69.56;100372.16;5011534;28;20108;-67
2023/12/22 04:40:40;;;;;;;71.65;68.30;;;;;;;9.73;69.54;100369.44;5022005;28;20057;-69
2023/12/22 04:43:06;;;;;;;74.78;70.47;;;;;;;9.74;69.74;100368.38;5020237;28;20033;-68
2023/12/22 04:45:31;;;;;;;71.93;68.00;;;;;;;9.74;69.73;100373.78;5029440;28;20025;-67
2023/12/22 04:47:57;;;;;;;73.43;70.18;;;;;;;9.75;69.88;100370.84;5011973;28;20040;-68
2023/12/22 04:50:22;;;;;;;73.22;69.72;;;;;;;9.76;69.67;100382.44;5015081;28;20177;-69
2023/12/22 04:52:48;;;;;;;76.20;72.43;;;;;;;9.75;69.62;100370.84;5012012;28;20525;-67
2023/12/22 04:55:13;;;;;;;74.30;70.70;;;;;;;9.75;69.86;100383.47;5024332;28;20038;-68
2023/12/22 04:57:39;;;;;;;75.18;71.53;;;;;;;9.76;69.39;100377.03;5026489;28;20382;-69
2023/12/22 05:00:05;;;;;;;78.60;71.50;;;;;;;9.77;70.01;100377.84;5018004;28;20045;-68
2023/12/22 05:02:30;;;;;;;73.93;69.75;;;;;;;9.80;69.91;100382.75;5012699;28;20104;-68
2023/12/22 05:04:56;;;;;;;77.18;72.47;;;;;;;9.79;69.68;100381.94;5019137;28;20044;-68
2023/12/22 05:07:21;;;;;;;72.45;67.90;;;;;;;9.81;69.92;100390.59;5033173;28;20037;-67
2023/12/22 05:09:46;;;;;;;70.70;67.53;;;;;;;9.81;69.74;100387.91;5014961;28;20080;-67
2023/12/22 05:12:12;;;;;;;76.30;72.57;;;;;;;9.80;69.68;100394.34;5015936;28;20572;-69
2023/12/22 05:14:37;;;;;;;71.80;68.57;;;;;;;9.79;69.94;100414.31;5022051;28;20038;-67
2023/12/22 05:17:03;;;;;;;68.80;65.63;;;;;;;9.79;69.92;100414.31;5021440;28;20456;-67
2023/12/22 05:19:28;;;;;;;74.13;70.32;;;;;;;9.78;70.25;100401.06;5014887;28;20033;-68
2023/12/22 05:21:55;;;;;;;75.93;72.28;;;;;;;9.80;69.90;100394.34;5015037;28;20478;-66
2023/12/22 05:24:22;;;;;;;73.75;70.25;;;;;;;9.79;69.99;100402.72;5027812;28;20037;-66
2023/12/22 05:26:47;;;;;;;79.05;75.45;;;;;;;9.80;70.13;100394.34;5020918;28;20476;-67
2023/12/22 05:29:13;;;;;;;74.22;70.57;;;;;;;9.80;70.06;100398.94;5014839;28;20113;-68
2023/12/22 05:31:39;;;;;;;73.22;69.53;;;;;;;9.79;69.90;100386.53;5016369;28;20030;-67
2023/12/22 05:34:05;;;;;;;72.90;69.40;;;;;;;9.78;69.92;100383.00;5015252;28;20022;-69
2023/12/22 05:36:30;;;;;;;70.82;67.40;;;;;;;9.78;69.94;100382.16;5028032;28;20049;-69
2023/12/22 05:38:55;;;;;;;74.05;69.78;;;;;;;9.77;70.18;100373.28;5014596;28;20060;-67
2023/12/22 05:41:21;;;;;;;72.75;68.82;;;;;;;9.79;70.07;100375.72;5031002;28;20409;-68
2023/12/22 05:43:46;;;;;;;76.10;72.47;;;;;;;9.81;70.05;100370.91;5017118;28;20064;-68
2023/12/22 05:46:12;;;;;;;74.03;69.13;;;;;;;9.80;70.01;100380.06;5022013;28;20057;-68
2023/12/22 05:48:37;;;;;;;75.57;72.07;;;;;;;9.81;69.75;100382.50;5014443;28;20459;-68
2023/12/22 05:51:03;;;;;;;74.60;70.47;;;;;;;9.79;69.94;100379.25;5025167;28;20037;-69
2023/12/22 05:53:29;;;;;;;73.50;70.20;;;;;;;9.81;69.98;100387.09;5014966;28;20129;-68
2023/12/22 05:55:54;;;;;;;77.00;72.00;;;;;;;9.80;70.15;100383.56;5017336;28;20117;-68
2023/12/22 05:58:20;;;;;;;77.13;71.72;;;;;;;9.80;69.40;100371.97;5050310;28;20029;-68
2023/12/22 06:00:45;;;;;;;74.82;71.25;;;;;;;9.79;69.74;100378.44;5017622;28;20116;-68
2023/12/22 06:03:11;;;;;;;73.07;69.28;;;;;;;9.77;69.70;100362.47;5013448;28;20033;-67
2023/12/22 06:05:36;;;;;;;77.57;72.65;;;;;;;9.78;69.68;100374.91;5014496;28;20390;-67
2023/12/22 06:08:01;;;;;;;72.35;69.00;;;;;;;9.78;69.82;100368.69;5028326;28;20065;-68
2023/12/22 06:10:27;;;;;;;73.32;68.78;;;;;;;9.77;69.69;100369.75;5020870;28;20080;-67
2023/12/22 06:12:52;;;;;;;74.80;70.57;;;;;;;9.76;69.72;100366.25;5020069;28;20045;-68
2023/12/22 06:15:18;;;;;;;69.47;65.80;;;;;;;9.79;69.78;100378.44;5014184;28;20037;-67
2023/12/22 06:17:43;;;;;;;75.60;71.47;;;;;;;9.81;69.92;100365.53;5038471;28;20037;-67
2023/12/22 06:20:09;;;;;;;74.20;70.35;;;;;;;9.81;69.71;100369.03;5034511;28;20486;-68
2023/12/22 06:22:34;;;;;;;75.30;70.97;;;;;;;9.83;69.95;100369.59;5022329;28;20026;-67
2023/12/22 06:25:00;;;;;;;74.60;71.05;;;;;;;9.82;69.47;100370.66;5013817;28;20036;-68
2023/12/22 06:27:26;;;;;;;72.93;68.63;;;;;;;9.83;69.73;100350.72;5026891;28;20037;-68
2023/12/22 06:29:51;;;;;;;75.55;71.82;;;;;;;9.83;69.57;100358.81;5032130;28;20064;-68
2023/12/22 06:32:17;;;;;;;73.03;69.32;;;;;;;9.83;69.69;100377.69;5013646;28;20471;-70
2023/12/22 06:34:42;;;;;;;73.43;69.82;;;;;;;9.83;69.85;100376.88;5013614;28;20076;-67
2023/12/22 06:37:08;;;;;;;76.38;72.78;;;;;;;9.82;69.32;100380.63;5014687;28;20095;-69
2023/12/22 06:39:33;;;;;;;72.10;68.70;;;;;;;9.80;69.68;100371.97;5031385;28;20077;-67
2023/12/22 06:41:58;;;;;;;75.43;71.63;;;;;;;9.79;69.59;100381.94;5014179;28;20041;-68
2023/12/22 06:44:25;;;;;;;74.80;71.40;;;;;;;9.79;70.02;100381.13;5030846;28;20061;-67
2023/12/22 06:46:51;;;;;;;77.13;72.97;;;;;;;9.81;69.86;100396.00;5019975;28;20120;-67
2023/12/22 06:49:16;;;;;;;72.50;69.03;;;;;;;9.82;69.88;100386.84;5030605;28;20125;-68
2023/12/22 06:51:41;;;;;;;72.28;68.32;;;;;;;9.83;69.86;100395.78;5013235;28;20065;-68
2023/12/22 06:54:07;;;;;;;74.53;70.93;;;;;;;9.83;69.63;100403.84;5030684;28;20136;-68
2023/12/22 06:56:34;;;;;;;73.28;69.20;;;;;;;9.85;69.86;100390.91;5018810;28;20084;-68
2023/12/22 06:59:00;;;;;;;76.55;73.05;;;;;;;9.83;69.86;100395.78;5023471;28;20032;-68
2023/12/22 07:01:31;;;;;;;76.40;72.15;;;;;;;9.84;69.52;100389.28;5027245;28;20032;-67
2023/12/22 07:03:57;;;;;;;72.13;68.53;;;;;;;9.85;69.71;100386.38;5017896;28;20243;-68
2023/12/22 07:06:23;;;;;;;75.28;70.78;;;;;;;9.86;69.58;100366.41;5021602;28;20450;-67
2023/12/22 07:09:11;;;;;;;75.18;70.93;;;;;;;9.87;69.72;100372.59;5029182;28;20481;-67
2023/12/22 07:11:37;;;;;;;75.07;71.37;;;;;;;9.87;69.85;100372.59;5021492;28;20022;-67
2023/12/22 07:14:02;;;;;;;76.00;72.60;;;;;;;9.87;69.81;100378.00;5018412;28;20636;-67
2023/12/22 07:16:28;;;;;;;72.65;69.18;;;;;;;9.88;69.79;100377.78;5012516;28;20043;-67
2023/12/22 07:18:53;;;;;;;74.65;71.13;;;;;;;9.90;69.71;100380.22;5014828;28;20136;-68
2023/12/22 07:21:19;;;;;;;76.65;73.00;;;;;;;9.89;69.76;100371.31;5034213;28;20474;-67
2023/12/22 07:23:44;;;;;;;82.60;78.53;;;;;;;9.89;69.66;100367.78;5012366;28;20029;-67
2023/12/22 07:26:10;;;;;;;78.07;74.18;;;;;;;9.88;69.72;100371.56;5012795;28;20069;-68
2023/12/22 07:28:36;;;;;;;78.85;73.85;;;;;;;9.87;69.84;100378.81;5018368;28;20060;-68
2023/12/22 07:31:01;;;;;;;72.55;69.13;;;;;;;9.86;69.75;100376.38;5031791;28;20060;-67
2023/12/22 07:33:26;;;;;;;75.20;71.30;;;;;;;9.87;69.75;100381.50;5032342;28;20377;-68
2023/12/22 07:35:52;;;;;;;74.10;69.80;;;;;;;9.90;69.85;100350.53;5030485;28;20386;-66
2023/12/22 07:38:17;;;;;;;79.97;74.45;;;;;;;9.89;69.76;100360.50;5028611;28;20046;-68
2023/12/22 07:40:43;;;;;;;76.30;72.28;;;;;;;9.88;69.68;100377.78;5019306;28;20065;-66
2023/12/22 07:43:08;;;;;;;75.15;70.38;;;;;;;9.88;69.67;100374.25;5023708;28;20026;-66
2023/12/22 07:45:34;;;;;;;75.60;72.13;;;;;;;9.88;69.63;100382.34;5012630;28;20113;-67
2023/12/22 07:47:59;;;;;;;79.28;74.63;;;;;;;9.86;69.76;100369.09;5011577;28;20048;-67
2023/12/22 07:50:25;;;;;;;73.90;70.60;;;;;;;9.87;69.89;100361.81;5027537;28;20046;-67
2023/12/22 07:52:50;;;;;;;77.03;73.10;;;;;;;9.87;69.83;100369.91;5020989;28;20113;-67
2023/12/22 07:55:16;;;;;;;76.10;72.45;;;;;;;9.86;69.55;100368.28;5012397;28;20041;-66
2023/12/22 07:57:41;;;;;;;74.50;70.78;;;;;;;9.86;69.69;100379.91;5026971;28;20385;-68
2023/12/22 08:00:09;;;;;;;74.50;70.63;;;;;;;9.86;70.08;100377.19;5030234;28;20152;-67
2023/12/22 08:02:34;;;;;;;71.95;67.55;;;;;;;9.88;69.83;100383.16;5026994;28;20037;-67
2023/12/22 08:05:00;;;;;;;77.97;72.70;;;;;;;9.90;70.24;100385.59;5029011;28;20034;-66
2023/12/22 08:07:25;;;;;;;78.20;74.18;;;;;;;9.91;70.07;100379.16;5026071;28;20037;-68
2023/12/22 08:09:51;;;;;;;78.10;74.45;;;;;;;9.93;69.92;100377.84;4999028;28;20363;-66
2023/12/22 08:12:16;;;;;;;75.78;71.93;;;;;;;9.97;69.96;100388.94;5015452;28;20471;-67
2023/12/22 08:14:41;;;;;;;74.65;71.18;;;;;;;9.94;69.75;100389.44;5020436;28;20045;-69
2023/12/22 08:17:07;;;;;;;78.07;74.13;;;;;;;9.93;70.01;100377.84;5018136;28;20049;-67
2023/12/22 08:19:32;;;;;;;74.28;70.68;;;;;;;9.95;70.14;100380.28;5024717;28;20104;-67
2023/12/22 08:21:58;;;;;;;76.10;72.20;;;;;;;9.97;70.01;100394.34;5011860;28;20038;-68
2023/12/22 08:24:23;;;;;;;73.80;70.38;;;;;;;9.95;69.97;100383.81;5025120;28;20165;-67
2023/12/22 08:26:49;;;;;;;75.25;71.40;;;;;;;9.96;69.99;100381.94;5018443;28;20193;-68
2023/12/22 08:29:15;;;;;;;75.10;71.75;;;;;;;9.97;69.88;100380.84;5018603;28;20037;-67
2023/12/22 08:31:41;;;;;;;74.85;71.35;;;;;;;9.97;70.17;100367.38;5011939;28;20450;-68
2023/12/22 08:34:06;;;;;;;77.90;74.40;;;;;;;9.98;70.28;100371.72;5026241;28;20151;-67
2023/12/22 08:36:32;;;;;;;86.43;81.50;;;;;;;10.00;70.19;100366.88;5031238;28;20037;-67
2023/12/22 08:38:57;;;;;;;75.63;71.78;;;;;;;10.01;70.20;100365.81;5012305;28;20050;-68
2023/12/22 08:41:23;;;;;;;75.75;71.85;;;;;;;10.02;70.19;100380.13;5017192;28;20379;-68
2023/12/22 08:43:48;;;;;;;76.72;73.10;;;;;;;10.04;70.52;100364.50;5019102;28;20165;-66
2023/12/22 08:46:14;;;;;;;74.60;70.70;;;;;;;10.05;70.18;100377.72;5033756;28;20114;-67
2023/12/22 08:48:40;;;;;;;74.90;71.53;;;;;;;10.02;70.23;100369.31;5021340;28;20030;-68
2023/12/22 08:51:05;;;;;;;76.25;72.53;;;;;;;10.02;70.52;100366.63;5015077;28;20034;-68
2023/12/22 08:53:36;;;;;;;77.15;73.65;;;;;;;10.01;70.17;100362.31;5021672;28;20037;-67
2023/12/22 08:56:02;;;;;;;74.57;71.10;;;;;;;10.02;70.45;100361.22;5025663;28;20025;-67
2023/12/22 08:58:27;;;;;;;72.13;68.82;;;;;;;10.04;70.45;100376.09;5017788;28;20061;-67
2023/12/22 09:00:52;;;;;;;77.43;73.55;;;;;;;10.03;70.53;100358.28;5026651;28;20454;-68
2023/12/22 09:03:18;;;;;;;74.43;71.03;;;;;;;10.05;70.52;100363.41;5015491;28;20076;-70
2023/12/22 09:05:43;;;;;;;74.07;70.32;;;;;;;10.05;70.76;100356.13;5018328;28;20034;-67
2023/12/22 09:08:08;;;;;;;74.47;71.07;;;;;;;10.07;70.81;100361.31;5024405;28;20088;-68
2023/12/22 09:10:35;;;;;;;72.95;69.68;;;;;;;10.09;70.67;100354.59;5013924;28;20034;-68
2023/12/22 09:13:01;;;;;;;74.32;70.63;;;;;;;10.09;70.75;100370.78;5013042;28;20037;-68
2023/12/22 09:15:26;;;;;;;71.93;68.65;;;;;;;10.09;70.61;100369.97;5016047;28;20121;-69
2023/12/22 09:17:53;;;;;;;76.85;73.15;;;;;;;10.10;70.69;100364.31;5031388;28;20037;-70
2023/12/22 09:20:18;;;;;;;73.88;70.60;;;;;;;10.11;70.59;100363.25;5032212;28;20041;-68
2023/12/22 09:22:44;;;;;;;77.65;74.05;;;;;;;10.12;70.75;100364.06;5032997;28;20037;-67
2023/12/22 09:25:09;;;;;;;77.32;73.47;;;;;;;10.13;70.90;100376.47;5031075;28;20037;-69
2023/12/22 09:27:34;;;;;;;75.97;72.22;;;;;;;10.13;70.48;100363.00;5028081;28;20434;-68
2023/12/22 09:30:00;;;;;;;74.53;70.75;;;;;;;10.11;70.89;100357.06;5029577;28;20477;-71
2023/12/22 09:32:26;;;;;;;73.60;70.18;;;;;;;10.11;70.97;100357.06;5027659;28;20064;-68
2023/12/22 09:34:52;;;;;;;76.95;73.18;;;;;;;10.13;70.90;100366.53;5029435;28;20037;-67
2023/12/22 09:37:18;;;;;;;74.65;71.32;;;;;;;10.11;70.30;100362.44;5030446;28;20037;-68
2023/12/22 09:39:43;;;;;;;77.53;73.85;;;;;;;10.10;70.27;100379.69;5023068;28;20053;-68
2023/12/22 09:42:08;;;;;;;77.88;74.38;;;;;;;10.09;70.66;100351.06;5025507;28;20583;-69
2023/12/22 09:44:37;;;;;;;78.85;74.60;;;;;;;10.06;70.57;100359.69;5028013;28;20034;-68
2023/12/22 09:47:04;;;;;;;77.97;74.28;;;;;;;10.04;70.90;100349.13;5026430;28;20473;-68
2023/12/22 09:49:30;;;;;;;75.85;72.05;;;;;;;10.08;71.00;100360.22;5017749;28;20434;-67
2023/12/22 09:51:57;;;;;;;74.88;71.57;;;;;;;10.09;71.01;100368.09;5015919;28;20500;-70
2023/12/22 09:54:22;;;;;;;76.85;73.47;;;;;;;10.10;71.16;100361.59;5013748;28;20466;-71
2023/12/22 09:56:50;;;;;;;79.28;75.13;;;;;;;10.13;71.20;100363.00;5019830;28;20038;-68
2023/12/22 09:59:19;;;;;;;74.45;71.15;;;;;;;10.14;70.98;100367.34;5030197;28;20238;-69
2023/12/22 10:01:45;;;;;;;78.93;75.22;;;;;;;10.17;71.02;100359.56;5013204;28;20049;-67
2023/12/22 10:04:12;;;;;;;76.53;73.10;;;;;;;10.19;70.92;100360.13;5012856;28;20625;-67
2023/12/22 10:06:38;;;;;;;73.43;69.93;;;;;;;10.23;71.17;100362.31;5026611;28;20463;-67
2023/12/22 10:09:05;;;;;;;75.60;72.10;;;;;;;10.23;71.02;100365.00;5030897;28;20116;-67
2023/12/22 10:11:32;;;;;;;75.95;72.20;;;;;;;10.22;70.96;100355.31;5030911;28;20045;-67
2023/12/22 10:14:00;;;;;;;80.72;77.00;;;;;;;10.22;71.11;100358.81;5026709;28;20034;-67
2023/12/22 10:16:25;;;;;;;80.88;77.00;;;;;;;10.22;70.40;100353.41;5012913;28;20037;-66
2023/12/22 10:18:52;;;;;;;76.55;73.05;;;;;;;10.23;70.91;100352.34;5030029;28;20033;-68
2023/12/22 10:21:17;;;;;;;75.28;71.80;;;;;;;10.26;71.21;100359.94;5028359;28;20060;-68
2023/12/22 10:23:42;;;;;;;76.20;72.70;;;;;;;10.26;71.08;100353.75;5041918;28;20033;-67
2023/12/22 10:26:13;;;;;;;78.80;75.00;;;;;;;10.29;71.20;100347.88;5017038;28;20084;-67
2023/12/22 10:28:40;;;;;;;79.78;76.18;;;;;;;10.32;71.23;100356.28;5024180;28;20069;-68
2023/12/22 10:31:07;;;;;;;79.10;75.50;;;;;;;10.34;70.88;100348.75;5030974;28;20491;-66
2023/12/22 10:33:33;;;;;;;77.38;73.97;;;;;;;10.37;70.70;100350.13;5033282;28;20460;-67
2023/12/22 10:35:59;;;;;;;78.43;74.95;;;;;;;10.38;70.97;100366.09;5022212;28;20030;-67
2023/12/22 10:38:27;;;;;;;80.95;77.35;;;;;;;10.39;70.81;100373.09;5029099;28;20054;-66
2023/12/22 10:40:53;;;;;;;79.13;75.55;;;;;;;10.39;70.90;100362.31;5018914;28;20414;-66
2023/12/22 10:43:18;;;;;;;85.18;81.28;;;;;;;10.40;70.51;100355.81;5013980;28;20049;-67
2023/12/22 10:45:44;;;;;;;80.43;76.63;;;;;;;10.40;70.68;100349.63;5021092;28;20065;-66
2023/12/22 10:48:10;;;;;;;81.38;77.57;;;;;;;10.42;71.02;100373.69;5017299;28;20037;-67
2023/12/22 10:50:36;;;;;;;81.95;77.88;;;;;;;10.41;70.80;100353.97;5019316;28;20358;-70
2023/12/22 10:53:01;;;;;;;78.75;75.25;;;;;;;10.43;70.97;100372.59;5014210;28;20517;-67
2023/12/22 10:55:26;;;;;;;79.22;75.65;;;;;;;10.42;70.69;100369.09;5016998;28;20034;-67
2023/12/22 10:57:53;;;;;;;82.85;78.95;;;;;;;10.40;70.53;100376.63;5029801;28;20072;-67
2023/12/22 11:00:21;;;;;;;82.40;78.53;;;;;;;10.43;71.16;100373.41;5027885;28;20803;-67
2023/12/22 11:02:51;;;;;;;82.90;79.03;;;;;;;10.45;70.80;100378.56;5021948;28;20062;-67
2023/12/22 11:05:19;;;;;;;83.78;79.97;;;;;;;10.47;70.74;100362.94;5023230;28;20029;-67
2023/12/22 11:07:49;;;;;;;78.88;75.38;;;;;;;10.48;70.79;100378.91;5022522;28;20046;-66